sensor_id;sensor_type;location;lat;lon;timestamp;pressure;altitude;pressure_sealevel;temperature;humidity
18022;BME280;9136;48.822;7.966;2023-04-06T00:02:10;100529.78;;;0.05;100.00
18022;BME280;9136;48.822;7.966;2023-04-06T00:05:00;100531.50;;;0.06;100.00
18022;BME280;9136;48.822;7.966;2023-04-06T00:07:47;100536.94;;;0.24;100.00
18022;BME280;9136;48.822;7.966;2023-04-06T00:10:35;100509.38;;;0.21;100.00
18022;BME280;9136;48.822;7.966;2023-04-06T00:13:23;100513.53;;;0.10;100.00
18022;BME280;9136;48.822;7.966;2023-04-06T00:16:11;100551.69;;;0.31;100.00
18022;BME280;9136;48.822;7.966;2023-04-06T00:19:01;100509.13;;;0.05;100.00
18022;BME280;9136;48.822;7.966;2023-04-06T00:21:50;100539.50;;;0.22;100.00
18022;BME280;9136;48.822;7.966;2023-04-06T00:24:38;100517.75;;;0.07;100.00
18022;BME280;9136;48.822;7.966;2023-04-06T00:27:26;100556.78;;;0.26;100.00
18022;BME280;9136;48.822;7.966;2023-04-06T00:30:14;100514.25;;;0.02;100.00
18022;BME280;9136;48.822;7.966;2023-04-06T00:33:03;100512.53;;;0.02;100.00
18022;BME280;9136;48.822;7.966;2023-04-06T00:35:50;100507.38;;;0.02;100.00
18022;BME280;9136;48.822;7.966;2023-04-06T00:38:41;100503.84;;;-0.02;100.00
18022;BME280;9136;48.822;7.966;2023-04-06T00:41:30;100498.69;;;-0.02;100.00
18022;BME280;9136;48.822;7.966;2023-04-06T00:44:19;100527.38;;;0.18;100.00
18022;BME280;9136;48.822;7.966;2023-04-06T00:47:07;100502.19;;;0.02;100.00
18022;BME280;9136;48.822;7.966;2023-04-06T00:49:56;100482.28;;;-0.07;100.00
18022;BME280;9136;48.822;7.966;2023-04-06T00:52:44;100504.63;;;-0.09;100.00
18022;BME280;9136;48.822;7.966;2023-04-06T00:55:33;100509.09;;;0.02;100.00
18022;BME280;9136;48.822;7.966;2023-04-06T00:58:22;100496.06;;;-0.06;100.00
18022;BME280;9136;48.822;7.966;2023-04-06T01:01:11;100508.09;;;-0.08;100.00
18022;BME280;9136;48.822;7.966;2023-04-06T01:03:59;100497.66;;;-0.13;100.00
18022;BME280;9136;48.822;7.966;2023-04-06T01:06:49;100521.72;;;-0.15;100.00
18022;BME280;9136;48.822;7.966;2023-04-06T01:09:37;100498.34;;;-0.26;100.00
18022;BME280;9136;48.822;7.966;2023-04-06T01:12:28;100498.28;;;-0.29;100.00
18022;BME280;9136;48.822;7.966;2023-04-06T01:15:16;100481.59;;;-0.51;100.00
18022;BME280;9136;48.822;7.966;2023-04-06T01:18:08;100503.34;;;-0.35;100.00
18022;BME280;9136;48.822;7.966;2023-04-06T01:20:56;100497.38;;;-0.33;100.00
18022;BME280;9136;48.822;7.966;2023-04-06T01:23:46;100481.00;;;-0.35;100.00
18022;BME280;9136;48.822;7.966;2023-04-06T01:26:37;100486.41;;;-0.18;100.00
18022;BME280;9136;48.822;7.966;2023-04-06T01:29:25;100489.63;;;-0.31;100.00
18022;BME280;9136;48.822;7.966;2023-04-06T01:32:13;100504.38;;;-0.24;100.00
18022;BME280;9136;48.822;7.966;2023-04-06T01:35:01;100512.25;;;-0.18;100.00
18022;BME280;9136;48.822;7.966;2023-04-06T01:37:49;100470.56;;;-0.39;100.00
18022;BME280;9136;48.822;7.966;2023-04-06T01:40:38;100491.47;;;-0.25;100.00
18022;BME280;9136;48.822;7.966;2023-04-06T01:43:26;100491.31;;;-0.35;100.00
18022;BME280;9136;48.822;7.966;2023-04-06T01:46:15;100466.81;;;-0.60;100.00
18022;BME280;9136;48.822;7.966;2023-04-06T01:49:03;100486.75;;;-0.49;100.00
18022;BME280;9136;48.822;7.966;2023-04-06T01:51:51;100462.34;;;-0.71;100.00
18022;BME280;9136;48.822;7.966;2023-04-06T01:54:40;100468.44;;;-0.66;100.00
18022;BME280;9136;48.822;7.966;2023-04-06T01:57:29;100479.66;;;-0.64;100.00
18022;BME280;9136;48.822;7.966;2023-04-06T02:00:17;100497.00;;;-0.55;100.00
18022;BME280;9136;48.822;7.966;2023-04-06T02:03:06;100511.66;;;-0.53;100.00
18022;BME280;9136;48.822;7.966;2023-04-06T02:05:54;100489.88;;;-0.69;100.00
18022;BME280;9136;48.822;7.966;2023-04-06T02:08:41;100476.78;;;-0.81;100.00
18022;BME280;9136;48.822;7.966;2023-04-06T02:11:29;100486.50;;;-0.66;100.00
18022;BME280;9136;48.822;7.966;2023-04-06T02:14:19;100490.72;;;-0.70;100.00
18022;BME280;9136;48.822;7.966;2023-04-06T02:17:07;100462.88;;;-0.89;100.00
18022;BME280;9136;48.822;7.966;2023-04-06T02:19:55;100474.34;;;-0.73;100.00
18022;BME280;9136;48.822;7.966;2023-04-06T02:22:43;100454.47;;;-0.79;100.00
18022;BME280;9136;48.822;7.966;2023-04-06T02:25:31;100476.28;;;-0.60;100.00
18022;BME280;9136;48.822;7.966;2023-04-06T02:28:19;100477.22;;;-0.56;100.00
18022;BME280;9136;48.822;7.966;2023-04-06T02:31:09;100450.28;;;-0.72;100.00
18022;BME280;9136;48.822;7.966;2023-04-06T02:33:59;100453.72;;;-0.72;100.00
18022;BME280;9136;48.822;7.966;2023-04-06T02:36:49;100485.16;;;-0.43;100.00
18022;BME280;9136;48.822;7.966;2023-04-06T02:39:38;100454.91;;;-0.51;100.00
18022;BME280;9136;48.822;7.966;2023-04-06T02:42:26;100459.84;;;-0.67;100.00
18022;BME280;9136;48.822;7.966;2023-04-06T02:45:15;100450.31;;;-0.69;100.00
18022;BME280;9136;48.822;7.966;2023-04-06T02:48:05;100447.59;;;-0.78;100.00
18022;BME280;9136;48.822;7.966;2023-04-06T02:50:53;100465.75;;;-0.74;100.00
18022;BME280;9136;48.822;7.966;2023-04-06T02:53:41;100480.53;;;-0.62;100.00
18022;BME280;9136;48.822;7.966;2023-04-06T02:56:29;100446.63;;;-0.85;100.00
18022;BME280;9136;48.822;7.966;2023-04-06T03:03:14;100464.63;;;-0.88;100.00
18022;BME280;9136;48.822;7.966;2023-04-06T03:06:02;100447.22;;;-1.01;100.00
18022;BME280;9136;48.822;7.966;2023-04-06T03:08:50;100475.91;;;-0.81;100.00
18022;BME280;9136;48.822;7.966;2023-04-06T03:11:37;100476.78;;;-0.81;100.00
18022;BME280;9136;48.822;7.966;2023-04-06T03:14:27;100461.16;;;-0.90;100.00
18022;BME280;9136;48.822;7.966;2023-04-06T03:17:14;100467.91;;;-0.97;100.00
18022;BME280;9136;48.822;7.966;2023-04-06T03:20:04;100441.88;;;-1.12;100.00
18022;BME280;9136;48.822;7.966;2023-04-06T03:22:52;100486.00;;;-0.95;100.00
18022;BME280;9136;48.822;7.966;2023-04-06T03:25:42;100467.78;;;-1.04;100.00
18022;BME280;9136;48.822;7.966;2023-04-06T03:28:32;100467.66;;;-1.10;100.00
18022;BME280;9136;48.822;7.966;2023-04-06T03:31:20;100473.81;;;-1.04;100.00
18022;BME280;9136;48.822;7.966;2023-04-06T03:34:10;100463.38;;;-1.10;100.00
18022;BME280;9136;48.822;7.966;2023-04-06T03:36:59;100464.19;;;-1.12;100.00
18022;BME280;9136;48.822;7.966;2023-04-06T03:39:47;100484.03;;;-1.08;100.00
18022;BME280;9136;48.822;7.966;2023-04-06T03:42:35;100484.91;;;-1.06;100.00
18022;BME280;9136;48.822;7.966;2023-04-06T03:45:23;100463.19;;;-1.21;100.00
18022;BME280;9136;48.822;7.966;2023-04-06T03:48:11;100481.25;;;-1.19;100.00
18022;BME280;9136;48.822;7.966;2023-04-06T03:50:59;100478.59;;;-1.24;100.00
18022;BME280;9136;48.822;7.966;2023-04-06T03:53:48;100481.88;;;-1.32;100.00
18022;BME280;9136;48.822;7.966;2023-04-06T03:56:36;100459.34;;;-1.41;100.00
18022;BME280;9136;48.822;7.966;2023-04-06T03:59:24;100490.41;;;-1.35;100.00
18022;BME280;9136;48.822;7.966;2023-04-06T04:02:12;100491.22;;;-1.36;100.00
18022;BME280;9136;48.822;7.966;2023-04-06T04:05:00;100485.84;;;-1.47;100.00
18022;BME280;9136;48.822;7.966;2023-04-06T04:07:50;100506.63;;;-1.39;100.00
18022;BME280;9136;48.822;7.966;2023-04-06T04:10:40;100522.22;;;-1.33;100.00
18022;BME280;9136;48.822;7.966;2023-04-06T04:13:28;100482.13;;;-1.62;100.00
18022;BME280;9136;48.822;7.966;2023-04-06T04:16:16;100529.69;;;-1.45;100.00
18022;BME280;9136;48.822;7.966;2023-04-06T04:19:04;100491.47;;;-1.66;100.00
18022;BME280;9136;48.822;7.966;2023-04-06T04:21:52;100515.00;;;-1.49;100.00
18022;BME280;9136;48.822;7.966;2023-04-06T04:24:39;100524.41;;;-1.53;100.00
18022;BME280;9136;48.822;7.966;2023-04-06T04:27:29;100508.94;;;-1.53;100.00
18022;BME280;9136;48.822;7.966;2023-04-06T04:30:17;100510.59;;;-1.55;100.00
18022;BME280;9136;48.822;7.966;2023-04-06T04:33:06;100510.56;;;-1.56;100.00
18022;BME280;9136;48.822;7.966;2023-04-06T04:35:54;100504.34;;;-1.66;100.00
18022;BME280;9136;48.822;7.966;2023-04-06T04:38:44;100507.13;;;-1.57;100.00
18022;BME280;9136;48.822;7.966;2023-04-06T04:41:32;100505.44;;;-1.55;100.00
18022;BME280;9136;48.822;7.966;2023-04-06T04:44:22;100499.41;;;-1.57;100.00
18022;BME280;9136;48.822;7.966;2023-04-06T04:47:09;100517.03;;;-1.34;100.00
18022;BME280;9136;48.822;7.966;2023-04-06T04:49:57;100516.13;;;-1.36;100.00
18022;BME280;9136;48.822;7.966;2023-04-06T04:52:46;100513.22;;;-1.53;100.00
18022;BME280;9136;48.822;7.966;2023-04-06T04:55:33;100523.34;;;-1.62;100.00
18022;BME280;9136;48.822;7.966;2023-04-06T04:58:21;100544.13;;;-1.53;100.00
18022;BME280;9136;48.822;7.966;2023-04-06T05:01:11;100514.66;;;-1.66;100.00
18022;BME280;9136;48.822;7.966;2023-04-06T05:03:59;100496.50;;;-1.72;100.00
18022;BME280;9136;48.822;7.966;2023-04-06T05:06:48;100528.75;;;-1.50;100.00
18022;BME280;9136;48.822;7.966;2023-04-06T05:09:36;100532.25;;;-1.45;100.00
18022;BME280;9136;48.822;7.966;2023-04-06T05:12:23;100503.97;;;-1.43;100.00
18022;BME280;9136;48.822;7.966;2023-04-06T05:15:13;100539.44;;;-1.32;100.00
18022;BME280;9136;48.822;7.966;2023-04-06T05:18:02;100529.88;;;-1.36;100.00
18022;BME280;9136;48.822;7.966;2023-04-06T05:20:50;100511.50;;;-1.54;100.00
18022;BME280;9136;48.822;7.966;2023-04-06T05:23:38;100556.69;;;-1.28;100.00
18022;BME280;9136;48.822;7.966;2023-04-06T05:26:26;100524.78;;;-1.34;100.00
18022;BME280;9136;48.822;7.966;2023-04-06T05:29:14;100551.88;;;-1.09;100.00
18022;BME280;9136;48.822;7.966;2023-04-06T05:32:03;100533.75;;;-1.16;100.00
18022;BME280;9136;48.822;7.966;2023-04-06T05:34:52;100510.38;;;-1.25;100.00
18022;BME280;9136;48.822;7.966;2023-04-06T05:37:41;100537.53;;;-0.97;100.00
18022;BME280;9136;48.822;7.966;2023-04-06T05:40:29;100517.09;;;-1.31;100.00
18022;BME280;9136;48.822;7.966;2023-04-06T05:43:18;100526.03;;;-1.14;100.00
18022;BME280;9136;48.822;7.966;2023-04-06T05:46:08;100526.13;;;-1.09;100.00
18022;BME280;9136;48.822;7.966;2023-04-06T05:48:56;100528.88;;;-1.00;100.00
18022;BME280;9136;48.822;7.966;2023-04-06T05:51:46;100533.56;;;-0.78;100.00
18022;BME280;9136;48.822;7.966;2023-04-06T05:54:35;100503.19;;;-0.96;100.00
18022;BME280;9136;48.822;7.966;2023-04-06T05:57:23;100557.72;;;-0.76;100.00
18022;BME280;9136;48.822;7.966;2023-04-06T06:00:12;100526.41;;;-0.94;100.00
18022;BME280;9136;48.822;7.966;2023-04-06T06:03:02;100535.22;;;-0.83;100.00
18022;BME280;9136;48.822;7.966;2023-04-06T06:05:52;100516.47;;;-0.74;100.00
18022;BME280;9136;48.822;7.966;2023-04-06T06:08:44;100559.94;;;-0.47;100.00
18022;BME280;9136;48.822;7.966;2023-04-06T06:11:32;100560.13;;;-0.35;100.00
18022;BME280;9136;48.822;7.966;2023-04-06T06:14:22;100546.53;;;-0.26;100.00
18022;BME280;9136;48.822;7.966;2023-04-06T06:17:10;100577.81;;;-0.08;100.00
18022;BME280;9136;48.822;7.966;2023-04-06T06:19:58;100563.16;;;-0.09;100.00
18022;BME280;9136;48.822;7.966;2023-04-06T06:22:46;100577.25;;;0.13;100.00
18022;BME280;9136;48.822;7.966;2023-04-06T06:25:35;100527.97;;;-0.01;100.00
18022;BME280;9136;48.822;7.966;2023-04-06T06:28:23;100546.16;;;0.05;100.00
18022;BME280;9136;48.822;7.966;2023-04-06T06:31:14;100531.50;;;0.06;100.00
18022;BME280;9136;48.822;7.966;2023-04-06T06:34:05;100538.56;;;0.17;100.00
18022;BME280;9136;48.822;7.966;2023-04-06T06:36:53;100558.88;;;0.52;100.00
18022;BME280;9136;48.822;7.966;2023-04-06T06:39:41;100538.28;;;0.58;100.00
18022;BME280;9136;48.822;7.966;2023-04-06T06:42:31;100535.00;;;0.73;100.00
18022;BME280;9136;48.822;7.966;2023-04-06T06:45:19;100567.25;;;1.02;100.00
18022;BME280;9136;48.822;7.966;2023-04-06T06:48:07;100540.50;;;1.00;100.00
18022;BME280;9136;48.822;7.966;2023-04-06T06:50:56;100533.81;;;1.21;100.00
18022;BME280;9136;48.822;7.966;2023-04-06T06:53:45;100550.38;;;1.38;100.00
18022;BME280;9136;48.822;7.966;2023-04-06T06:56:34;100541.09;;;1.60;100.00
18022;BME280;9136;48.822;7.966;2023-04-06T06:59:25;100556.78;;;1.78;100.00
18022;BME280;9136;48.822;7.966;2023-04-06T07:02:15;100543.03;;;1.84;100.00
18022;BME280;9136;48.822;7.966;2023-04-06T07:05:03;100537.88;;;1.90;100.00
18022;BME280;9136;48.822;7.966;2023-04-06T07:07:50;100558.75;;;2.10;100.00
18022;BME280;9136;48.822;7.966;2023-04-06T07:10:38;100539.69;;;2.01;100.00
18022;BME280;9136;48.822;7.966;2023-04-06T07:13:26;100577.91;;;2.32;100.00
18022;BME280;9136;48.822;7.966;2023-04-06T07:16:18;100550.19;;;2.18;100.00
18022;BME280;9136;48.822;7.966;2023-04-06T07:19:08;100543.34;;;2.31;100.00
18022;BME280;9136;48.822;7.966;2023-04-06T07:21:56;100591.03;;;2.59;100.00
18022;BME280;9136;48.822;7.966;2023-04-06T07:24:44;100546.94;;;2.59;100.00
18022;BME280;9136;48.822;7.966;2023-04-06T07:27:33;100539.97;;;2.46;100.00
18022;BME280;9136;48.822;7.966;2023-04-06T07:30:27;100550.50;;;2.78;100.00
18022;BME280;9136;48.822;7.966;2023-04-06T07:33:21;100558.34;;;2.96;100.00
18022;BME280;9136;48.822;7.966;2023-04-06T07:36:10;100569.59;;;2.97;100.00
18022;BME280;9136;48.822;7.966;2023-04-06T07:38:58;100549.72;;;3.06;100.00
18022;BME280;9136;48.822;7.966;2023-04-06T07:41:46;100578.34;;;3.26;100.00
18022;BME280;9136;48.822;7.966;2023-04-06T07:44:34;100548.94;;;3.33;100.00
18022;BME280;9136;48.822;7.966;2023-04-06T07:47:23;100561.97;;;3.55;100.00
18022;BME280;9136;48.822;7.966;2023-04-06T07:50:12;100538.59;;;3.55;100.00
18022;BME280;9136;48.822;7.966;2023-04-06T07:53:00;100567.19;;;3.87;100.00
18022;BME280;9136;48.822;7.966;2023-04-06T07:55:49;100575.84;;;4.09;100.00
18022;BME280;9136;48.822;7.966;2023-04-06T08:02:31;100539.44;;;4.15;100.00
18022;BME280;9136;48.822;7.966;2023-04-06T08:05:21;100540.28;;;4.30;100.00
18022;BME280;9136;48.822;7.966;2023-04-06T08:08:11;100560.16;;;4.56;100.00
18022;BME280;9136;48.822;7.966;2023-04-06T08:10:59;100548.84;;;4.66;100.00
18022;BME280;9136;48.822;7.966;2023-04-06T08:13:49;100540.94;;;4.89;100.00
18022;BME280;9136;48.822;7.966;2023-04-06T08:16:39;100577.16;;;5.36;100.00
18022;BME280;9136;48.822;7.966;2023-04-06T08:19:27;100567.47;;;5.57;100.00
18022;BME280;9136;48.822;7.966;2023-04-06T08:22:16;100546.47;;;5.77;100.00
18022;BME280;9136;48.822;7.966;2023-04-06T08:25:06;100536.06;;;5.75;100.00
18022;BME280;9136;48.822;7.966;2023-04-06T08:27:57;100529.69;;;6.14;100.00
18022;BME280;9136;48.822;7.966;2023-04-06T08:30:48;100530.16;;;6.51;94.14
18022;BME280;9136;48.822;7.966;2023-04-06T08:33:38;100550.63;;;6.88;89.60
18022;BME280;9136;48.822;7.966;2023-04-06T08:36:26;100551.38;;;6.95;86.61
18022;BME280;9136;48.822;7.966;2023-04-06T08:39:15;100544.00;;;7.27;86.65
18022;BME280;9136;48.822;7.966;2023-04-06T08:42:21;100553.50;;;7.34;82.95
18022;BME280;9136;48.822;7.966;2023-04-06T08:45:14;100542.03;;;7.41;75.24
18022;BME280;9136;48.822;7.966;2023-04-06T08:48:05;100554.69;;;7.70;70.62
18022;BME280;9136;48.822;7.966;2023-04-06T08:50:55;100531.06;;;7.77;69.33
18022;BME280;9136;48.822;7.966;2023-04-06T08:53:47;100558.34;;;8.13;61.73
18022;BME280;9136;48.822;7.966;2023-04-06T08:56:39;100557.34;;;8.21;60.70
18022;BME280;9136;48.822;7.966;2023-04-06T08:59:34;100537.47;;;8.10;58.41
18022;BME280;9136;48.822;7.966;2023-04-06T09:02:24;100560.84;;;8.68;59.08
18022;BME280;9136;48.822;7.966;2023-04-06T09:05:13;100551.75;;;8.43;54.26
18022;BME280;9136;48.822;7.966;2023-04-06T09:08:02;100547.06;;;8.60;54.46
18022;BME280;9136;48.822;7.966;2023-04-06T09:10:57;100538.00;;;8.28;55.11
18022;BME280;9136;48.822;7.966;2023-04-06T09:14:01;100531.06;;;8.26;55.28
18022;BME280;9136;48.822;7.966;2023-04-06T09:16:49;100546.59;;;8.83;54.30
18022;BME280;9136;48.822;7.966;2023-04-06T09:19:45;100546.03;;;9.10;55.51
18022;BME280;9136;48.822;7.966;2023-04-06T09:22:38;100521.09;;;9.31;57.51
18022;BME280;9136;48.822;7.966;2023-04-06T09:25:26;100535.91;;;8.92;53.04
18022;BME280;9136;48.822;7.966;2023-04-06T09:28:16;100525.06;;;9.10;55.38
18022;BME280;9136;48.822;7.966;2023-04-06T09:31:21;100524.19;;;9.10;55.99
18022;BME280;9136;48.822;7.966;2023-04-06T09:34:20;100538.16;;;9.49;54.08
18022;BME280;9136;48.822;7.966;2023-04-06T09:37:15;100548.78;;;9.43;52.75
18022;BME280;9136;48.822;7.966;2023-04-06T09:40:05;100528.72;;;9.42;51.37
18022;BME280;9136;48.822;7.966;2023-04-06T09:42:58;100555.28;;;9.65;51.04
18022;BME280;9136;48.822;7.966;2023-04-06T09:45:53;100536.69;;;9.73;52.34
18022;BME280;9136;48.822;7.966;2023-04-06T09:48:47;100524.91;;;9.91;50.66
18022;BME280;9136;48.822;7.966;2023-04-06T09:51:39;100544.03;;;9.96;49.51
18022;BME280;9136;48.822;7.966;2023-04-06T09:54:31;100516.28;;;10.20;48.60
18022;BME280;9136;48.822;7.966;2023-04-06T09:57:26;100504.06;;;10.53;47.93
18022;BME280;9136;48.822;7.966;2023-04-06T10:00:29;100509.91;;;10.63;46.69
18022;BME280;9136;48.822;7.966;2023-04-06T10:03:29;100521.69;;;11.08;45.62
18022;BME280;9136;48.822;7.966;2023-04-06T10:06:34;100521.75;;;11.63;43.26
18022;BME280;9136;48.822;7.966;2023-04-06T10:09:25;100513.97;;;11.32;43.30
18022;BME280;9136;48.822;7.966;2023-04-06T10:12:31;100507.03;;;12.10;41.37
18022;BME280;9136;48.822;7.966;2023-04-06T10:15:19;100506.72;;;11.66;42.80
18022;BME280;9136;48.822;7.966;2023-04-06T10:18:08;100511.13;;;12.19;43.18
18022;BME280;9136;48.822;7.966;2023-04-06T10:21:04;100526.75;;;12.73;39.86
18022;BME280;9136;48.822;7.966;2023-04-06T10:24:01;100515.66;;;12.40;38.43
18022;BME280;9136;48.822;7.966;2023-04-06T10:27:01;100509.66;;;12.35;39.48
18022;BME280;9136;48.822;7.966;2023-04-06T10:29:55;100516.22;;;11.98;38.78
18022;BME280;9136;48.822;7.966;2023-04-06T10:32:52;100530.56;;;12.15;38.03
18022;BME280;9136;48.822;7.966;2023-04-06T10:35:40;100531.50;;;12.14;39.26
18022;BME280;9136;48.822;7.966;2023-04-06T10:38:34;100499.28;;;12.06;39.92
18022;BME280;9136;48.822;7.966;2023-04-06T10:41:42;100517.25;;;12.44;35.71
18022;BME280;9136;48.822;7.966;2023-04-06T10:44:42;100504.63;;;12.29;34.84
18022;BME280;9136;48.822;7.966;2023-04-06T10:47:38;100508.81;;;12.35;36.05
18022;BME280;9136;48.822;7.966;2023-04-06T10:50:30;100495.28;;;12.45;34.65
18022;BME280;9136;48.822;7.966;2023-04-06T10:53:21;100527.22;;;13.08;33.82
18022;BME280;9136;48.822;7.966;2023-04-06T10:56:12;100503.53;;;13.30;33.71
18022;BME280;9136;48.822;7.966;2023-04-06T10:59:02;100513.78;;;13.59;32.73
18022;BME280;9136;48.822;7.966;2023-04-06T11:01:58;100494.09;;;14.09;31.08
18022;BME280;9136;48.822;7.966;2023-04-06T11:05:00;100505.34;;;15.12;29.35
18022;BME280;9136;48.822;7.966;2023-04-06T11:08:02;100495.88;;;15.63;29.40
18022;BME280;9136;48.822;7.966;2023-04-06T11:11:04;100488.91;;;15.61;28.16
18022;BME280;9136;48.822;7.966;2023-04-06T11:13:58;100486.16;;;16.99;26.96
18022;BME280;9136;48.822;7.966;2023-04-06T11:16:52;100501.00;;;17.65;25.30
18022;BME280;9136;48.822;7.966;2023-04-06T11:19:40;100464.38;;;17.71;25.62
18022;BME280;9136;48.822;7.966;2023-04-06T11:22:28;100461.41;;;17.30;28.49
18022;BME280;9136;48.822;7.966;2023-04-06T11:25:17;100469.63;;;16.94;24.95
18022;BME280;9136;48.822;7.966;2023-04-06T11:28:07;100481.25;;;19.02;26.17
18022;BME280;9136;48.822;7.966;2023-04-06T11:30:59;100446.50;;;18.76;24.03
18022;BME280;9136;48.822;7.966;2023-04-06T11:33:55;100473.59;;;19.24;22.77
18022;BME280;9136;48.822;7.966;2023-04-06T11:36:46;100456.56;;;17.68;24.66
18022;BME280;9136;48.822;7.966;2023-04-06T11:39:38;100474.16;;;17.39;24.95
18022;BME280;9136;48.822;7.966;2023-04-06T11:42:29;100443.53;;;18.81;23.45
18022;BME280;9136;48.822;7.966;2023-04-06T11:45:17;100468.16;;;18.84;23.54
18022;BME280;9136;48.822;7.966;2023-04-06T11:48:17;100439.22;;;20.00;26.35
18022;BME280;9136;48.822;7.966;2023-04-06T11:51:28;100434.63;;;20.79;24.56
18022;BME280;9136;48.822;7.966;2023-04-06T11:54:20;100429.13;;;21.06;22.29
18022;BME280;9136;48.822;7.966;2023-04-06T11:57:21;100420.75;;;19.97;24.05
18022;BME280;9136;48.822;7.966;2023-04-06T12:00:12;100462.13;;;19.90;23.28
18022;BME280;9136;48.822;7.966;2023-04-06T12:03:03;100438.41;;;18.78;24.51
18022;BME280;9136;48.822;7.966;2023-04-06T12:05:51;100426.47;;;19.66;23.37
18022;BME280;9136;48.822;7.966;2023-04-06T12:08:40;100418.91;;;19.60;25.44
18022;BME280;9136;48.822;7.966;2023-04-06T12:11:30;100415.78;;;18.85;26.79
18022;BME280;9136;48.822;7.966;2023-04-06T12:14:18;100403.88;;;18.91;25.87
18022;BME280;9136;48.822;7.966;2023-04-06T12:17:06;100406.25;;;18.10;24.29
18022;BME280;9136;48.822;7.966;2023-04-06T12:19:54;100404.19;;;17.25;25.64
18022;BME280;9136;48.822;7.966;2023-04-06T12:22:43;100419.72;;;17.01;25.31
18022;BME280;9136;48.822;7.966;2023-04-06T12:25:34;100420.06;;;18.16;24.98
18022;BME280;9136;48.822;7.966;2023-04-06T12:28:26;100424.44;;;19.15;25.57
18022;BME280;9136;48.822;7.966;2023-04-06T12:31:15;100419.34;;;19.79;23.83
18022;BME280;9136;48.822;7.966;2023-04-06T12:34:04;100415.66;;;18.86;24.23
18022;BME280;9136;48.822;7.966;2023-04-06T12:36:52;100407.66;;;16.46;26.61
18022;BME280;9136;48.822;7.966;2023-04-06T12:39:43;100390.13;;;16.59;27.27
18022;BME280;9136;48.822;7.966;2023-04-06T12:42:34;100395.28;;;16.29;27.69
18022;BME280;9136;48.822;7.966;2023-04-06T12:45:23;100393.09;;;16.38;27.24
18022;BME280;9136;48.822;7.966;2023-04-06T12:48:10;100406.13;;;15.92;26.99
18022;BME280;9136;48.822;7.966;2023-04-06T12:51:01;100422.28;;;16.20;28.26
18022;BME280;9136;48.822;7.966;2023-04-06T12:53:50;100380.63;;;16.55;26.86
18022;BME280;9136;48.822;7.966;2023-04-06T12:56:38;100409.53;;;16.44;28.38
18022;BME280;9136;48.822;7.966;2023-04-06T12:59:32;100407.44;;;16.00;29.83
18022;BME280;9136;48.822;7.966;2023-04-06T13:02:21;100398.97;;;15.77;28.72
18022;BME280;9136;48.822;7.966;2023-04-06T13:05:09;100377.00;;;15.74;29.06
18022;BME280;9136;48.822;7.966;2023-04-06T13:07:57;100394.31;;;15.64;29.07
18022;BME280;9136;48.822;7.966;2023-04-06T13:10:47;100391.59;;;15.66;28.34
18022;BME280;9136;48.822;7.966;2023-04-06T13:13:38;100408.38;;;15.11;29.60
18022;BME280;9136;48.822;7.966;2023-04-06T13:16:30;100399.09;;;15.56;30.02
18022;BME280;9136;48.822;7.966;2023-04-06T13:19:18;100370.31;;;15.14;30.09
18022;BME280;9136;48.822;7.966;2023-04-06T13:22:06;100384.53;;;15.48;29.82
18022;BME280;9136;48.822;7.966;2023-04-06T13:24:54;100370.66;;;15.42;28.85
18022;BME280;9136;48.822;7.966;2023-04-06T13:27:42;100380.84;;;15.15;28.92
18022;BME280;9136;48.822;7.966;2023-04-06T13:30:34;100383.34;;;14.24;30.49
18022;BME280;9136;48.822;7.966;2023-04-06T13:33:23;100358.50;;;14.66;29.92
18022;BME280;9136;48.822;7.966;2023-04-06T13:36:11;100375.75;;;15.11;30.17
18022;BME280;9136;48.822;7.966;2023-04-06T13:38:59;100393.16;;;15.16;30.10
18022;BME280;9136;48.822;7.966;2023-04-06T13:41:47;100376.97;;;14.68;30.47
18022;BME280;9136;48.822;7.966;2023-04-06T13:44:35;100372.94;;;15.14;29.80
18022;BME280;9136;48.822;7.966;2023-04-06T13:47:23;100370.59;;;15.27;29.18
18022;BME280;9136;48.822;7.966;2023-04-06T13:50:12;100354.59;;;15.11;29.83
18022;BME280;9136;48.822;7.966;2023-04-06T13:53:00;100386.28;;;14.57;30.50
18022;BME280;9136;48.822;7.966;2023-04-06T13:55:54;100376.81;;;14.89;30.18
18022;BME280;9136;48.822;7.966;2023-04-06T13:58:42;100371.00;;;15.00;30.43
18022;BME280;9136;48.822;7.966;2023-04-06T14:01:30;100344.50;;;14.83;31.18
18022;BME280;9136;48.822;7.966;2023-04-06T14:04:19;100353.19;;;15.74;31.23
18022;BME280;9136;48.822;7.966;2023-04-06T14:07:10;100361.63;;;14.93;30.29
18022;BME280;9136;48.822;7.966;2023-04-06T14:10:00;100351.09;;;15.10;31.26
18022;BME280;9136;48.822;7.966;2023-04-06T14:12:48;100378.53;;;14.53;32.07
18022;BME280;9136;48.822;7.966;2023-04-06T14:15:35;100379.50;;;14.31;31.16
18022;BME280;9136;48.822;7.966;2023-04-06T14:18:23;100356.75;;;14.27;31.93
18022;BME280;9136;48.822;7.966;2023-04-06T14:21:14;100342.84;;;14.43;31.85
18022;BME280;9136;48.822;7.966;2023-04-06T14:24:04;100343.88;;;14.40;32.02
18022;BME280;9136;48.822;7.966;2023-04-06T14:26:53;100371.00;;;14.44;33.33
18022;BME280;9136;48.822;7.966;2023-04-06T14:29:44;100355.78;;;14.30;33.25
18022;BME280;9136;48.822;7.966;2023-04-06T14:32:31;100335.81;;;14.04;33.73
18022;BME280;9136;48.822;7.966;2023-04-06T14:35:21;100355.88;;;14.08;33.93
18022;BME280;9136;48.822;7.966;2023-04-06T14:38:09;100345.72;;;13.99;33.38
18022;BME280;9136;48.822;7.966;2023-04-06T14:40:58;100355.75;;;13.52;32.99
18022;BME280;9136;48.822;7.966;2023-04-06T14:43:47;100359.75;;;13.40;34.25
18022;BME280;9136;48.822;7.966;2023-04-06T14:46:35;100357.78;;;13.45;33.83
18022;BME280;9136;48.822;7.966;2023-04-06T14:49:22;100359.88;;;13.37;34.01
18022;BME280;9136;48.822;7.966;2023-04-06T14:52:10;100363.59;;;13.53;35.37
18022;BME280;9136;48.822;7.966;2023-04-06T14:54:58;100364.00;;;13.64;34.29
18022;BME280;9136;48.822;7.966;2023-04-06T14:57:49;100354.47;;;13.60;34.69
18022;BME280;9136;48.822;7.966;2023-04-06T15:00:38;100369.72;;;13.54;34.21
18022;BME280;9136;48.822;7.966;2023-04-06T15:03:26;100351.97;;;13.57;35.57
18022;BME280;9136;48.822;7.966;2023-04-06T15:06:14;100344.72;;;13.62;34.06